Aviation Digital Data Service (ADDS)

Output produced by METARs form (0721 UTC 20 March 2019)
found at http://www.aviationweather.gov/metar/data/
 
Forecast for: NLWF (FUTUNA ISL/MAOPO, FJ)
Text: TAF NLWF 200500Z 2006/2106 08008KT 9999 SCT024
Forecast period: 0600 UTC 20 March 2019 to 0600 UTC 21 March 2019
Forecast type: FROM: standard forecast or significant change
Winds: from the E (80 degrees) at 9 MPH (8 knots; 4.1 m/s)
Visibility: 6 or more miles 10+ km)
Ceiling: at least 12,000 feet AGL
Clouds: scattered clouds at 2400 feet AGL
Weather: no significant weather forecast for this period
Text: PROB40
Forecast period: 0000 to 0600 UTC 21 March 2019
Forecast type: TEMPORARY: The following changes expected for less than half the time period
Visibility: missing
Ceiling: at least 12,000 feet AGL
Clouds: few clouds at 1800 feet AGL
Weather: SHRA  (rain showers)